Hourly Observations for June 13, 2018

Temp ( °F °C ) Dew Point ( °F °C ) Humidity (%) Winds ( mph kmh ) Pressure ( in mb ) Visibility ( mi km ) Precip ( " mm )
12:53 am 00:53 Clear 74 23.3 71 21.7 91 91 Calm 29.94 1014 7 11.265408 0 0
1:53 am 01:53 Clear 75 23.9 70 21.1 84 84 SSE 3 6 29.94 1014 8 12.874752 0 0
2:53 am 02:53 Clear 75 23.9 69 20.6 82 82 S 3 6 29.94 1014 8 12.874752 0 0
3:53 am 03:53 Clear 74 23.3 69 20.6 85 85 Calm 29.94 1014 8 12.874752 0 0
4:53 am 04:53 Clear with Mist and Fog 71 21.7 69 20.6 94 94 ESE 3 6 29.97 1015 5 8.04672 0 0
5:53 am 05:53 Clear with Mist and Fog 69 20.6 67 19.4 93 93 Calm 29.97 1015 4 6.437376 0 0
6:53 am 06:53 Sunny with Mist and Fog 69 20.6 67 19.4 93 93 Calm 30 1016 3 4.828032 0 0
7:53 am 07:53 Hazy 75 23.9 70 21.1 84 84 Calm 30 1016 6 9.656064 0 0
8:53 am 08:53 Sunny 82 27.8 70 21.1 67 67 S 5 7 30 1016 8 12.874752 0 0
9:53 am 09:53 Sunny 86 30 70 21.1 59 59 SW 5 7 30.03 1017 8 12.874752 0 0
10:53 am 10:53 Sunny 90 32.2 70 21.1 52 52 SSW 6 9 30 1016 7 11.265408 0 0
11:53 am 11:53 Sunny 92 33.3 69 20.6 47 47 SSW 8 13 30 1016 8 12.874752 0 0
12:53 pm 12:53 Sunny 94 34.4 68 20 43 43 N 5 7 29.97 1015 8 12.874752 0 0
1:53 pm 13:53 Sunny 94 34.4 66 18.9 40 40 SW 7 11 29.94 1014 8 12.874752 0 0
2:53 pm 14:53 Mostly Cloudy 97 36.1 67 19.4 37 37 SW 9 15 29.94 1014 9 14.484096 0 0
3:53 pm 15:53 Sunny 94 34.4 66 18.9 40 40 S 7 11 29.91 1013 10 16.09344 0 0
4:53 pm 16:53 Mostly Sunny 93 33.9 66 18.9 41 41 SSW 5 7 29.91 1013 10 16.09344 0 0
5:53 pm 17:53 Sunny 90 32.2 68 20 48 48 Calm 29.91 1013 10 16.09344 0 0
6:53 pm 18:53 Sunny 83 28.3 70 21.1 65 65 Calm 29.91 1013 10 16.09344 0 0
7:53 pm 19:53 Clear 78 25.6 69 20.6 74 74 S 5 7 29.91 1013 10 16.09344 0 0
8:53 pm 20:53 Clear 79 26.1 67 19.4 67 67 S 5 7 29.91 1013 10 16.09344 0 0
9:53 pm 21:53 Clear 80 26.7 65 18.3 60 60 S 6 9 29.94 1014 10 16.09344 0 0
10:53 pm 22:53 Clear 80 26.7 65 18.3 60 60 S 6 9 29.94 1014 10 16.09344 0 0
11:53 pm 23:53 Partly Cloudy 80 26.7 65 18.3 60 60 SSW 3 6 29.94 1014 10 16.09344 0 0

Powered by AerisWeather

Site Deisgn Provided by Innovations Branding House, Paducah, KY